sensor_id;sensor_type;location;lat;lon;timestamp;P1;durP1;ratioP1;P2;durP2;ratioP2
3337;SDS011;1682;49.286;10.788;2023-07-20T00:02:07;17.23;;;9.83;;
3337;SDS011;1682;49.286;10.788;2023-07-20T00:04:54;12.57;;;10.53;;
3337;SDS011;1682;49.286;10.788;2023-07-20T07:03:29;3.20;;;2.90;;
3337;SDS011;1682;49.286;10.788;2023-07-20T07:06:16;6.37;;;3.53;;
3337;SDS011;1682;49.286;10.788;2023-07-20T07:09:04;4.37;;;4.07;;
3337;SDS011;1682;49.286;10.788;2023-07-20T07:11:51;2.87;;;2.57;;
3337;SDS011;1682;49.286;10.788;2023-07-20T07:14:39;3.37;;;3.10;;
3337;SDS011;1682;49.286;10.788;2023-07-20T07:17:26;4.43;;;2.80;;
3337;SDS011;1682;49.286;10.788;2023-07-20T07:20:15;3.10;;;2.63;;
3337;SDS011;1682;49.286;10.788;2023-07-20T07:23:03;9.60;;;3.40;;
3337;SDS011;1682;49.286;10.788;2023-07-20T07:25:50;6.43;;;3.33;;
3337;SDS011;1682;49.286;10.788;2023-07-20T07:28:38;4.83;;;2.70;;
3337;SDS011;1682;49.286;10.788;2023-07-20T07:31:25;2.10;;;1.90;;
3337;SDS011;1682;49.286;10.788;2023-07-20T07:34:14;2.63;;;2.43;;
3337;SDS011;1682;49.286;10.788;2023-07-20T07:37:03;2.73;;;2.50;;
3337;SDS011;1682;49.286;10.788;2023-07-20T07:39:51;3.80;;;3.03;;
3337;SDS011;1682;49.286;10.788;2023-07-20T07:42:38;8.07;;;4.20;;
3337;SDS011;1682;49.286;10.788;2023-07-20T07:45:26;2.77;;;2.50;;
3337;SDS011;1682;49.286;10.788;2023-07-20T07:48:14;5.20;;;3.40;;
3337;SDS011;1682;49.286;10.788;2023-07-20T07:51:02;4.10;;;3.20;;
3337;SDS011;1682;49.286;10.788;2023-07-20T07:53:51;3.43;;;2.50;;
3337;SDS011;1682;49.286;10.788;2023-07-20T07:56:39;3.67;;;3.37;;
3337;SDS011;1682;49.286;10.788;2023-07-20T07:59:26;2.87;;;2.50;;
3337;SDS011;1682;49.286;10.788;2023-07-20T08:02:14;3.17;;;2.87;;
3337;SDS011;1682;49.286;10.788;2023-07-20T08:05:01;3.73;;;2.20;;
3337;SDS011;1682;49.286;10.788;2023-07-20T08:07:48;2.73;;;2.00;;
3337;SDS011;1682;49.286;10.788;2023-07-20T08:10:37;2.50;;;2.30;;
3337;SDS011;1682;49.286;10.788;2023-07-20T08:13:25;3.00;;;2.30;;
3337;SDS011;1682;49.286;10.788;2023-07-20T08:16:12;2.57;;;2.47;;
3337;SDS011;1682;49.286;10.788;2023-07-20T08:19:00;2.03;;;1.90;;
3337;SDS011;1682;49.286;10.788;2023-07-20T08:21:48;3.10;;;2.80;;
3337;SDS011;1682;49.286;10.788;2023-07-20T08:24:38;2.40;;;2.23;;
3337;SDS011;1682;49.286;10.788;2023-07-20T08:27:27;5.20;;;3.30;;
3337;SDS011;1682;49.286;10.788;2023-07-20T08:30:14;4.33;;;2.20;;
3337;SDS011;1682;49.286;10.788;2023-07-20T08:33:02;5.87;;;2.20;;
3337;SDS011;1682;49.286;10.788;2023-07-20T08:35:50;2.67;;;2.47;;
3337;SDS011;1682;49.286;10.788;2023-07-20T08:38:37;3.90;;;2.40;;
3337;SDS011;1682;49.286;10.788;2023-07-20T08:41:25;5.27;;;3.10;;
3337;SDS011;1682;49.286;10.788;2023-07-20T08:44:14;5.50;;;3.37;;
3337;SDS011;1682;49.286;10.788;2023-07-20T08:47:02;2.70;;;2.50;;
3337;SDS011;1682;49.286;10.788;2023-07-20T08:49:49;2.70;;;2.20;;
3337;SDS011;1682;49.286;10.788;2023-07-20T08:52:37;5.60;;;3.90;;
3337;SDS011;1682;49.286;10.788;2023-07-20T08:55:26;2.97;;;2.60;;
3337;SDS011;1682;49.286;10.788;2023-07-20T08:58:13;1.70;;;1.60;;
3337;SDS011;1682;49.286;10.788;2023-07-20T09:01:03;3.93;;;2.20;;
3337;SDS011;1682;49.286;10.788;2023-07-20T09:03:51;2.50;;;2.13;;
3337;SDS011;1682;49.286;10.788;2023-07-20T09:06:39;2.50;;;2.30;;
3337;SDS011;1682;49.286;10.788;2023-07-20T09:09:26;1.70;;;1.60;;
3337;SDS011;1682;49.286;10.788;2023-07-20T09:12:14;4.13;;;1.70;;
3337;SDS011;1682;49.286;10.788;2023-07-20T09:15:01;2.53;;;2.10;;
3337;SDS011;1682;49.286;10.788;2023-07-20T09:17:50;1.77;;;1.67;;
3337;SDS011;1682;49.286;10.788;2023-07-20T09:20:39;2.40;;;2.20;;
3337;SDS011;1682;49.286;10.788;2023-07-20T09:23:31;2.13;;;1.93;;
3337;SDS011;1682;49.286;10.788;2023-07-20T09:26:19;4.20;;;1.93;;
3337;SDS011;1682;49.286;10.788;2023-07-20T09:29:07;1.73;;;1.63;;
3337;SDS011;1682;49.286;10.788;2023-07-20T09:31:59;2.60;;;2.40;;
3337;SDS011;1682;49.286;10.788;2023-07-20T09:34:48;2.63;;;2.43;;
3337;SDS011;1682;49.286;10.788;2023-07-20T09:37:37;2.63;;;1.97;;
3337;SDS011;1682;49.286;10.788;2023-07-20T09:40:24;3.13;;;1.80;;
3337;SDS011;1682;49.286;10.788;2023-07-20T09:43:12;1.60;;;1.50;;
3337;SDS011;1682;49.286;10.788;2023-07-20T09:46:00;2.00;;;1.80;;
3337;SDS011;1682;49.286;10.788;2023-07-20T09:48:51;2.93;;;1.93;;
3337;SDS011;1682;49.286;10.788;2023-07-20T09:51:41;1.40;;;1.30;;
3337;SDS011;1682;49.286;10.788;2023-07-20T09:54:28;2.73;;;2.53;;
3337;SDS011;1682;49.286;10.788;2023-07-20T09:57:16;2.23;;;1.70;;
3337;SDS011;1682;49.286;10.788;2023-07-20T10:00:04;1.60;;;1.50;;
3337;SDS011;1682;49.286;10.788;2023-07-20T10:02:58;1.67;;;1.57;;
3337;SDS011;1682;49.286;10.788;2023-07-20T10:05:48;3.90;;;1.30;;
3337;SDS011;1682;49.286;10.788;2023-07-20T10:08:39;1.57;;;1.40;;
3337;SDS011;1682;49.286;10.788;2023-07-20T10:11:29;1.43;;;1.20;;
3337;SDS011;1682;49.286;10.788;2023-07-20T10:14:19;1.70;;;1.60;;
3337;SDS011;1682;49.286;10.788;2023-07-20T10:17:07;1.73;;;1.37;;
3337;SDS011;1682;49.286;10.788;2023-07-20T10:19:54;1.23;;;1.13;;
3337;SDS011;1682;49.286;10.788;2023-07-20T10:22:45;1.80;;;1.47;;
3337;SDS011;1682;49.286;10.788;2023-07-20T10:25:36;1.87;;;1.17;;
3337;SDS011;1682;49.286;10.788;2023-07-20T10:28:26;2.70;;;1.57;;
3337;SDS011;1682;49.286;10.788;2023-07-20T10:31:14;1.90;;;1.60;;
3337;SDS011;1682;49.286;10.788;2023-07-20T10:34:02;1.73;;;1.63;;
3337;SDS011;1682;49.286;10.788;2023-07-20T10:36:50;1.40;;;1.30;;
3337;SDS011;1682;49.286;10.788;2023-07-20T10:39:39;1.43;;;1.33;;
3337;SDS011;1682;49.286;10.788;2023-07-20T10:42:31;1.70;;;1.60;;
3337;SDS011;1682;49.286;10.788;2023-07-20T10:45:20;1.83;;;1.30;;
3337;SDS011;1682;49.286;10.788;2023-07-20T10:48:14;2.20;;;2.10;;
3337;SDS011;1682;49.286;10.788;2023-07-20T10:51:08;1.30;;;1.20;;
3337;SDS011;1682;49.286;10.788;2023-07-20T10:53:56;2.57;;;1.27;;
3337;SDS011;1682;49.286;10.788;2023-07-20T10:56:46;1.37;;;1.27;;
3337;SDS011;1682;49.286;10.788;2023-07-20T10:59:38;2.30;;;1.53;;
3337;SDS011;1682;49.286;10.788;2023-07-20T11:02:26;1.30;;;1.20;;
3337;SDS011;1682;49.286;10.788;2023-07-20T11:05:32;1.33;;;1.23;;
3337;SDS011;1682;49.286;10.788;2023-07-20T11:08:38;1.70;;;1.60;;
3337;SDS011;1682;49.286;10.788;2023-07-20T11:11:29;1.00;;;1.00;;
3337;SDS011;1682;49.286;10.788;2023-07-20T11:14:23;3.27;;;1.20;;
3337;SDS011;1682;49.286;10.788;2023-07-20T11:17:12;1.13;;;1.03;;
3337;SDS011;1682;49.286;10.788;2023-07-20T11:20:00;1.30;;;1.20;;
3337;SDS011;1682;49.286;10.788;2023-07-20T11:22:48;1.30;;;1.20;;
3337;SDS011;1682;49.286;10.788;2023-07-20T11:25:39;1.07;;;0.97;;
3337;SDS011;1682;49.286;10.788;2023-07-20T11:28:29;1.60;;;1.40;;
3337;SDS011;1682;49.286;10.788;2023-07-20T11:31:17;2.40;;;1.70;;
3337;SDS011;1682;49.286;10.788;2023-07-20T11:34:07;1.63;;;1.30;;
3337;SDS011;1682;49.286;10.788;2023-07-20T11:36:54;3.20;;;1.47;;
3337;SDS011;1682;49.286;10.788;2023-07-20T11:39:42;2.07;;;1.87;;
3337;SDS011;1682;49.286;10.788;2023-07-20T11:42:30;2.60;;;1.53;;
3337;SDS011;1682;49.286;10.788;2023-07-20T11:45:18;2.37;;;1.43;;
3337;SDS011;1682;49.286;10.788;2023-07-20T11:48:06;1.50;;;1.40;;
3337;SDS011;1682;49.286;10.788;2023-07-20T11:50:56;1.10;;;1.10;;
3337;SDS011;1682;49.286;10.788;2023-07-20T11:53:44;1.30;;;1.20;;
3337;SDS011;1682;49.286;10.788;2023-07-20T11:56:32;1.40;;;1.30;;
3337;SDS011;1682;49.286;10.788;2023-07-20T11:59:20;1.45;;;1.05;;
3337;SDS011;1682;49.286;10.788;2023-07-20T12:02:07;1.30;;;1.20;;
3337;SDS011;1682;49.286;10.788;2023-07-20T12:04:55;4.60;;;1.30;;
3337;SDS011;1682;49.286;10.788;2023-07-20T12:07:44;1.10;;;1.00;;
3337;SDS011;1682;49.286;10.788;2023-07-20T12:10:33;1.25;;;1.15;;
3337;SDS011;1682;49.286;10.788;2023-07-20T12:13:20;1.67;;;1.57;;
3337;SDS011;1682;49.286;10.788;2023-07-20T12:16:09;2.60;;;1.40;;
3337;SDS011;1682;49.286;10.788;2023-07-20T12:19:00;1.10;;;1.10;;
3337;SDS011;1682;49.286;10.788;2023-07-20T12:21:48;2.05;;;1.30;;
3337;SDS011;1682;49.286;10.788;2023-07-20T12:24:37;2.75;;;1.15;;
3337;SDS011;1682;49.286;10.788;2023-07-20T12:27:27;1.20;;;1.10;;
3337;SDS011;1682;49.286;10.788;2023-07-20T12:30:14;6.10;;;1.50;;
3337;SDS011;1682;49.286;10.788;2023-07-20T12:33:02;1.70;;;1.60;;
3337;SDS011;1682;49.286;10.788;2023-07-20T12:35:49;2.33;;;1.15;;
3337;SDS011;1682;49.286;10.788;2023-07-20T12:38:41;1.33;;;1.00;;
3337;SDS011;1682;49.286;10.788;2023-07-20T12:41:30;1.38;;;1.27;;
3337;SDS011;1682;49.286;10.788;2023-07-20T12:44:17;2.15;;;1.30;;
3337;SDS011;1682;49.286;10.788;2023-07-20T12:47:05;2.07;;;1.80;;
3337;SDS011;1682;49.286;10.788;2023-07-20T12:49:53;0.98;;;0.93;;
3337;SDS011;1682;49.286;10.788;2023-07-20T12:52:40;1.13;;;1.13;;
3337;SDS011;1682;49.286;10.788;2023-07-20T12:55:28;0.80;;;0.80;;
3337;SDS011;1682;49.286;10.788;2023-07-20T12:58:18;1.88;;;1.02;;
3337;SDS011;1682;49.286;10.788;2023-07-20T13:01:05;0.97;;;0.97;;
3337;SDS011;1682;49.286;10.788;2023-07-20T13:03:52;1.15;;;1.05;;
3337;SDS011;1682;49.286;10.788;2023-07-20T13:06:40;1.48;;;1.38;;
3337;SDS011;1682;49.286;10.788;2023-07-20T13:09:28;0.80;;;0.80;;
3337;SDS011;1682;49.286;10.788;2023-07-20T13:12:15;1.57;;;1.47;;
3337;SDS011;1682;49.286;10.788;2023-07-20T13:15:05;1.30;;;1.20;;
3337;SDS011;1682;49.286;10.788;2023-07-20T13:17:53;4.13;;;1.20;;
3337;SDS011;1682;49.286;10.788;2023-07-20T13:20:40;1.00;;;0.90;;
3337;SDS011;1682;49.286;10.788;2023-07-20T13:23:28;1.65;;;1.55;;
3337;SDS011;1682;49.286;10.788;2023-07-20T13:26:15;1.23;;;1.13;;
3337;SDS011;1682;49.286;10.788;2023-07-20T13:29:03;2.22;;;1.25;;
3337;SDS011;1682;49.286;10.788;2023-07-20T13:31:52;2.15;;;1.00;;
3337;SDS011;1682;49.286;10.788;2023-07-20T13:34:39;1.67;;;1.13;;
3337;SDS011;1682;49.286;10.788;2023-07-20T13:37:27;0.98;;;0.98;;
3337;SDS011;1682;49.286;10.788;2023-07-20T13:40:15;1.73;;;1.25;;
3337;SDS011;1682;49.286;10.788;2023-07-20T13:43:04;1.55;;;1.45;;
3337;SDS011;1682;49.286;10.788;2023-07-20T13:45:51;1.60;;;0.90;;
3337;SDS011;1682;49.286;10.788;2023-07-20T13:48:40;1.13;;;1.13;;
3337;SDS011;1682;49.286;10.788;2023-07-20T13:51:28;1.17;;;1.17;;
3337;SDS011;1682;49.286;10.788;2023-07-20T13:54:15;0.80;;;0.80;;
3337;SDS011;1682;49.286;10.788;2023-07-20T13:57:03;1.55;;;1.10;;
3337;SDS011;1682;49.286;10.788;2023-07-20T13:59:50;1.50;;;1.38;;
3337;SDS011;1682;49.286;10.788;2023-07-20T14:02:38;1.27;;;1.17;;
3337;SDS011;1682;49.286;10.788;2023-07-20T14:05:27;2.05;;;1.00;;
3337;SDS011;1682;49.286;10.788;2023-07-20T14:08:14;1.10;;;1.00;;
3337;SDS011;1682;49.286;10.788;2023-07-20T14:11:02;1.02;;;1.02;;
3337;SDS011;1682;49.286;10.788;2023-07-20T14:13:49;1.30;;;1.30;;
3337;SDS011;1682;49.286;10.788;2023-07-20T14:16:38;1.60;;;1.20;;
3337;SDS011;1682;49.286;10.788;2023-07-20T14:19:25;1.10;;;1.00;;
3337;SDS011;1682;49.286;10.788;2023-07-20T14:22:14;1.40;;;0.95;;
3337;SDS011;1682;49.286;10.788;2023-07-20T14:25:02;1.45;;;1.35;;
3337;SDS011;1682;49.286;10.788;2023-07-20T14:27:50;1.95;;;1.17;;
3337;SDS011;1682;49.286;10.788;2023-07-20T14:30:37;1.65;;;1.17;;
3337;SDS011;1682;49.286;10.788;2023-07-20T14:33:25;1.00;;;0.95;;
3337;SDS011;1682;49.286;10.788;2023-07-20T14:36:13;1.08;;;1.08;;
3337;SDS011;1682;49.286;10.788;2023-07-20T14:39:01;4.43;;;1.27;;
3337;SDS011;1682;49.286;10.788;2023-07-20T14:41:49;1.15;;;1.05;;
3337;SDS011;1682;49.286;10.788;2023-07-20T14:44:37;1.20;;;1.00;;
3337;SDS011;1682;49.286;10.788;2023-07-20T14:47:24;1.45;;;1.35;;
3337;SDS011;1682;49.286;10.788;2023-07-20T14:50:12;1.45;;;1.35;;
3337;SDS011;1682;49.286;10.788;2023-07-20T14:52:59;1.75;;;1.42;;
3337;SDS011;1682;49.286;10.788;2023-07-20T14:55:48;1.95;;;1.40;;
3337;SDS011;1682;49.286;10.788;2023-07-20T14:58:36;2.03;;;1.55;;
3337;SDS011;1682;49.286;10.788;2023-07-20T15:01:23;0.88;;;0.88;;
3337;SDS011;1682;49.286;10.788;2023-07-20T15:04:11;1.52;;;1.10;;
3337;SDS011;1682;49.286;10.788;2023-07-20T15:06:59;1.02;;;1.02;;
3337;SDS011;1682;49.286;10.788;2023-07-20T15:09:46;1.60;;;1.10;;
3337;SDS011;1682;49.286;10.788;2023-07-20T15:12:35;8.73;;;1.52;;
3337;SDS011;1682;49.286;10.788;2023-07-20T15:15:23;0.90;;;0.90;;
3337;SDS011;1682;49.286;10.788;2023-07-20T15:18:11;1.30;;;1.20;;
3337;SDS011;1682;49.286;10.788;2023-07-20T15:20:58;1.77;;;1.17;;
3337;SDS011;1682;49.286;10.788;2023-07-20T15:23:46;1.92;;;1.30;;
3337;SDS011;1682;49.286;10.788;2023-07-20T15:26:33;5.15;;;1.48;;
3337;SDS011;1682;49.286;10.788;2023-07-20T15:29:22;1.10;;;1.10;;
3337;SDS011;1682;49.286;10.788;2023-07-20T15:32:10;1.63;;;1.25;;
3337;SDS011;1682;49.286;10.788;2023-07-20T15:34:57;1.05;;;1.05;;
3337;SDS011;1682;49.286;10.788;2023-07-20T15:37:45;1.40;;;1.30;;
3337;SDS011;1682;49.286;10.788;2023-07-20T15:40:33;1.30;;;1.20;;
3337;SDS011;1682;49.286;10.788;2023-07-20T15:43:20;1.30;;;1.20;;
3337;SDS011;1682;49.286;10.788;2023-07-20T15:49:17;1.55;;;1.45;;
3337;SDS011;1682;49.286;10.788;2023-07-20T15:52:05;1.40;;;1.30;;
3337;SDS011;1682;49.286;10.788;2023-07-20T15:54:53;1.40;;;1.30;;
3337;SDS011;1682;49.286;10.788;2023-07-20T15:57:41;4.20;;;1.90;;
3337;SDS011;1682;49.286;10.788;2023-07-20T16:00:29;1.77;;;1.67;;
3337;SDS011;1682;49.286;10.788;2023-07-20T16:03:16;1.23;;;1.13;;
3337;SDS011;1682;49.286;10.788;2023-07-20T16:06:05;2.30;;;1.67;;
3337;SDS011;1682;49.286;10.788;2023-07-20T16:08:53;1.30;;;1.20;;
3337;SDS011;1682;49.286;10.788;2023-07-20T16:11:41;1.40;;;1.30;;
3337;SDS011;1682;49.286;10.788;2023-07-20T16:14:28;1.43;;;1.17;;
3337;SDS011;1682;49.286;10.788;2023-07-20T16:17:16;3.80;;;1.57;;
3337;SDS011;1682;49.286;10.788;2023-07-20T16:20:04;1.40;;;1.30;;
3337;SDS011;1682;49.286;10.788;2023-07-20T16:22:54;1.50;;;1.40;;
3337;SDS011;1682;49.286;10.788;2023-07-20T16:25:44;3.27;;;1.07;;
3337;SDS011;1682;49.286;10.788;2023-07-20T16:28:32;1.30;;;1.13;;
3337;SDS011;1682;49.286;10.788;2023-07-20T16:31:19;1.67;;;1.57;;
3337;SDS011;1682;49.286;10.788;2023-07-20T16:34:07;1.20;;;1.10;;
3337;SDS011;1682;49.286;10.788;2023-07-20T16:36:54;1.67;;;1.57;;
3337;SDS011;1682;49.286;10.788;2023-07-20T16:39:43;1.43;;;1.33;;
3337;SDS011;1682;49.286;10.788;2023-07-20T16:42:31;5.53;;;2.00;;
3337;SDS011;1682;49.286;10.788;2023-07-20T16:45:19;1.37;;;1.23;;
3337;SDS011;1682;49.286;10.788;2023-07-20T16:48:06;1.90;;;1.57;;
3337;SDS011;1682;49.286;10.788;2023-07-20T16:50:54;1.37;;;1.27;;
3337;SDS011;1682;49.286;10.788;2023-07-20T16:53:42;1.20;;;1.00;;
3337;SDS011;1682;49.286;10.788;2023-07-20T16:56:31;1.60;;;1.50;;
3337;SDS011;1682;49.286;10.788;2023-07-20T16:59:18;1.20;;;1.10;;
3337;SDS011;1682;49.286;10.788;2023-07-20T17:02:06;1.67;;;1.57;;
3337;SDS011;1682;49.286;10.788;2023-07-20T17:04:53;1.27;;;1.23;;
3337;SDS011;1682;49.286;10.788;2023-07-20T17:07:41;1.30;;;1.20;;
3337;SDS011;1682;49.286;10.788;2023-07-20T17:10:29;2.77;;;1.97;;
3337;SDS011;1682;49.286;10.788;2023-07-20T17:13:17;2.27;;;1.43;;
3337;SDS011;1682;49.286;10.788;2023-07-20T17:15:45;2.97;;;1.67;;
3337;SDS011;1682;49.286;10.788;2023-07-20T17:18:13;1.57;;;1.27;;
3337;SDS011;1682;49.286;10.788;2023-07-20T17:20:40;1.83;;;1.30;;
3337;SDS011;1682;49.286;10.788;2023-07-20T17:23:07;1.90;;;1.53;;
3337;SDS011;1682;49.286;10.788;2023-07-20T17:25:35;1.33;;;1.23;;
3337;SDS011;1682;49.286;10.788;2023-07-20T17:28:03;3.03;;;1.40;;
3337;SDS011;1682;49.286;10.788;2023-07-20T17:30:31;1.20;;;1.10;;
3337;SDS011;1682;49.286;10.788;2023-07-20T17:32:59;1.53;;;1.43;;
3337;SDS011;1682;49.286;10.788;2023-07-20T17:35:26;6.03;;;2.00;;
3337;SDS011;1682;49.286;10.788;2023-07-20T17:37:54;1.40;;;1.30;;
3337;SDS011;1682;49.286;10.788;2023-07-20T17:40:21;2.17;;;1.70;;
3337;SDS011;1682;49.286;10.788;2023-07-20T17:42:48;1.80;;;1.70;;
3337;SDS011;1682;49.286;10.788;2023-07-20T17:45:16;1.50;;;1.40;;
3337;SDS011;1682;49.286;10.788;2023-07-20T17:47:44;1.37;;;1.27;;
3337;SDS011;1682;49.286;10.788;2023-07-20T17:50:11;1.70;;;1.60;;
3337;SDS011;1682;49.286;10.788;2023-07-20T17:52:41;1.35;;;1.25;;
3337;SDS011;1682;49.286;10.788;2023-07-20T17:55:09;1.93;;;1.30;;
3337;SDS011;1682;49.286;10.788;2023-07-20T17:57:36;1.60;;;1.50;;
3337;SDS011;1682;49.286;10.788;2023-07-20T18:00:03;2.60;;;1.53;;
3337;SDS011;1682;49.286;10.788;2023-07-20T18:02:34;2.63;;;1.27;;
3337;SDS011;1682;49.286;10.788;2023-07-20T18:05:03;2.40;;;1.30;;
3337;SDS011;1682;49.286;10.788;2023-07-20T18:07:31;1.33;;;1.23;;
3337;SDS011;1682;49.286;10.788;2023-07-20T18:10:00;1.13;;;1.03;;
3337;SDS011;1682;49.286;10.788;2023-07-20T18:12:28;1.53;;;1.27;;
3337;SDS011;1682;49.286;10.788;2023-07-20T18:14:55;2.17;;;1.50;;
3337;SDS011;1682;49.286;10.788;2023-07-20T18:17:23;4.83;;;1.73;;
3337;SDS011;1682;49.286;10.788;2023-07-20T18:19:50;5.30;;;1.33;;
3337;SDS011;1682;49.286;10.788;2023-07-20T18:22:18;1.60;;;1.50;;
3337;SDS011;1682;49.286;10.788;2023-07-20T18:24:45;3.03;;;1.30;;
3337;SDS011;1682;49.286;10.788;2023-07-20T18:27:13;2.20;;;1.40;;
3337;SDS011;1682;49.286;10.788;2023-07-20T18:29:40;1.97;;;1.33;;
3337;SDS011;1682;49.286;10.788;2023-07-20T18:32:07;1.37;;;1.27;;
3337;SDS011;1682;49.286;10.788;2023-07-20T18:39:30;1.40;;;1.30;;
3337;SDS011;1682;49.286;10.788;2023-07-20T18:41:57;2.07;;;1.40;;
3337;SDS011;1682;49.286;10.788;2023-07-20T18:44:25;1.17;;;1.17;;
3337;SDS011;1682;49.286;10.788;2023-07-20T18:46:53;2.40;;;1.47;;
3337;SDS011;1682;49.286;10.788;2023-07-20T18:49:21;3.70;;;1.30;;
3337;SDS011;1682;49.286;10.788;2023-07-20T18:51:48;1.80;;;1.70;;
3337;SDS011;1682;49.286;10.788;2023-07-20T18:54:15;3.03;;;2.70;;
3337;SDS011;1682;49.286;10.788;2023-07-20T18:56:44;2.90;;;1.53;;
3337;SDS011;1682;49.286;10.788;2023-07-20T18:59:11;1.60;;;1.50;;
3337;SDS011;1682;49.286;10.788;2023-07-20T19:01:38;1.77;;;1.57;;
3337;SDS011;1682;49.286;10.788;2023-07-20T19:04:06;1.30;;;1.20;;
3337;SDS011;1682;49.286;10.788;2023-07-20T19:06:33;1.17;;;1.07;;
3337;SDS011;1682;49.286;10.788;2023-07-20T19:09:01;2.30;;;2.10;;
3337;SDS011;1682;49.286;10.788;2023-07-20T19:11:29;1.93;;;1.83;;
3337;SDS011;1682;49.286;10.788;2023-07-20T19:13:57;2.10;;;1.90;;
3337;SDS011;1682;49.286;10.788;2023-07-20T19:16:25;1.97;;;1.87;;
3337;SDS011;1682;49.286;10.788;2023-07-20T19:18:52;2.80;;;1.70;;
3337;SDS011;1682;49.286;10.788;2023-07-20T19:21:22;3.17;;;1.60;;
3337;SDS011;1682;49.286;10.788;2023-07-20T19:23:49;2.73;;;2.13;;
3337;SDS011;1682;49.286;10.788;2023-07-20T19:26:17;1.80;;;1.70;;
3337;SDS011;1682;49.286;10.788;2023-07-20T19:28:44;1.53;;;1.43;;
3337;SDS011;1682;49.286;10.788;2023-07-20T19:31:12;2.83;;;1.83;;
3337;SDS011;1682;49.286;10.788;2023-07-20T19:33:39;2.00;;;1.90;;
3337;SDS011;1682;49.286;10.788;2023-07-20T19:36:07;1.80;;;1.43;;
3337;SDS011;1682;49.286;10.788;2023-07-20T19:38:34;2.43;;;1.73;;
3337;SDS011;1682;49.286;10.788;2023-07-20T19:41:01;1.93;;;1.83;;
3337;SDS011;1682;49.286;10.788;2023-07-20T19:43:30;1.73;;;1.63;;
3337;SDS011;1682;49.286;10.788;2023-07-20T19:45:57;1.83;;;1.50;;
3337;SDS011;1682;49.286;10.788;2023-07-20T19:48:26;1.40;;;1.23;;
3337;SDS011;1682;49.286;10.788;2023-07-20T19:50:53;2.03;;;1.50;;
3337;SDS011;1682;49.286;10.788;2023-07-20T19:53:21;1.60;;;1.50;;
3337;SDS011;1682;49.286;10.788;2023-07-20T19:55:48;1.77;;;1.67;;
3337;SDS011;1682;49.286;10.788;2023-07-20T19:58:16;2.70;;;1.90;;
3337;SDS011;1682;49.286;10.788;2023-07-20T20:00:43;1.90;;;1.80;;
3337;SDS011;1682;49.286;10.788;2023-07-20T20:03:10;2.20;;;1.57;;
3337;SDS011;1682;49.286;10.788;2023-07-20T20:05:39;1.80;;;1.53;;
3337;SDS011;1682;49.286;10.788;2023-07-20T20:08:07;1.60;;;1.50;;
3337;SDS011;1682;49.286;10.788;2023-07-20T20:10:35;3.57;;;2.03;;
3337;SDS011;1682;49.286;10.788;2023-07-20T20:13:02;1.70;;;1.60;;
3337;SDS011;1682;49.286;10.788;2023-07-20T20:15:29;2.33;;;1.77;;
3337;SDS011;1682;49.286;10.788;2023-07-20T20:17:57;2.23;;;1.90;;
3337;SDS011;1682;49.286;10.788;2023-07-20T20:20:29;1.40;;;1.30;;
3337;SDS011;1682;49.286;10.788;2023-07-20T20:22:58;1.50;;;1.40;;
3337;SDS011;1682;49.286;10.788;2023-07-20T20:25:26;1.40;;;1.30;;
3337;SDS011;1682;49.286;10.788;2023-07-20T20:27:54;1.60;;;1.50;;
3337;SDS011;1682;49.286;10.788;2023-07-20T20:30:21;1.60;;;1.50;;
3337;SDS011;1682;49.286;10.788;2023-07-20T20:32:49;1.83;;;1.60;;
3337;SDS011;1682;49.286;10.788;2023-07-20T20:35:16;2.37;;;2.07;;
3337;SDS011;1682;49.286;10.788;2023-07-20T20:37:43;1.43;;;1.30;;
3337;SDS011;1682;49.286;10.788;2023-07-20T20:40:12;1.93;;;1.53;;
3337;SDS011;1682;49.286;10.788;2023-07-20T20:42:40;1.70;;;1.60;;
3337;SDS011;1682;49.286;10.788;2023-07-20T20:45:07;1.50;;;1.40;;
3337;SDS011;1682;49.286;10.788;2023-07-20T20:47:35;2.87;;;2.67;;
3337;SDS011;1682;49.286;10.788;2023-07-20T20:50:03;2.70;;;2.23;;
3337;SDS011;1682;49.286;10.788;2023-07-20T20:52:32;1.93;;;1.73;;
3337;SDS011;1682;49.286;10.788;2023-07-20T20:54:59;2.20;;;1.60;;
3337;SDS011;1682;49.286;10.788;2023-07-20T20:57:29;1.60;;;1.50;;
3337;SDS011;1682;49.286;10.788;2023-07-20T20:59:56;2.10;;;1.87;;
3337;SDS011;1682;49.286;10.788;2023-07-20T21:02:23;2.80;;;1.90;;
3337;SDS011;1682;49.286;10.788;2023-07-20T21:04:51;2.23;;;1.83;;
3337;SDS011;1682;49.286;10.788;2023-07-20T21:07:18;1.87;;;1.77;;
3337;SDS011;1682;49.286;10.788;2023-07-20T21:09:51;2.83;;;1.97;;
3337;SDS011;1682;49.286;10.788;2023-07-20T21:12:43;1.77;;;1.67;;
3337;SDS011;1682;49.286;10.788;2023-07-20T21:15:30;1.90;;;1.70;;
3337;SDS011;1682;49.286;10.788;2023-07-20T21:18:06;2.07;;;1.67;;
3337;SDS011;1682;49.286;10.788;2023-07-20T21:20:51;2.53;;;2.03;;
3337;SDS011;1682;49.286;10.788;2023-07-20T21:23:18;1.70;;;1.60;;
3337;SDS011;1682;49.286;10.788;2023-07-20T21:26:14;2.80;;;2.07;;
3337;SDS011;1682;49.286;10.788;2023-07-20T21:31:54;1.80;;;1.70;;
3337;SDS011;1682;49.286;10.788;2023-07-20T21:37:19;1.80;;;1.70;;
3337;SDS011;1682;49.286;10.788;2023-07-20T21:39:52;4.07;;;2.03;;
3337;SDS011;1682;49.286;10.788;2023-07-20T21:42:36;1.83;;;1.73;;
3337;SDS011;1682;49.286;10.788;2023-07-20T21:45:45;1.90;;;1.80;;
3337;SDS011;1682;49.286;10.788;2023-07-20T21:48:16;1.90;;;1.80;;
3337;SDS011;1682;49.286;10.788;2023-07-20T21:51:10;1.70;;;1.60;;
3337;SDS011;1682;49.286;10.788;2023-07-20T21:53:37;1.50;;;1.40;;
3337;SDS011;1682;49.286;10.788;2023-07-20T21:56:32;5.00;;;2.10;;
3337;SDS011;1682;49.286;10.788;2023-07-20T21:59:14;3.60;;;2.00;;
3337;SDS011;1682;49.286;10.788;2023-07-20T22:05:34;2.83;;;1.90;;
3337;SDS011;1682;49.286;10.788;2023-07-20T22:08:36;2.30;;;2.10;;
3337;SDS011;1682;49.286;10.788;2023-07-20T22:11:38;2.87;;;1.80;;
3337;SDS011;1682;49.286;10.788;2023-07-20T22:14:30;2.00;;;1.80;;
3337;SDS011;1682;49.286;10.788;2023-07-20T22:17:51;2.93;;;2.27;;
3337;SDS011;1682;49.286;10.788;2023-07-20T22:30:59;2.03;;;1.90;;
3337;SDS011;1682;49.286;10.788;2023-07-20T22:33:49;3.37;;;3.07;;
3337;SDS011;1682;49.286;10.788;2023-07-20T22:36:53;9.47;;;5.83;;
3337;SDS011;1682;49.286;10.788;2023-07-20T22:40:00;25.40;;;13.97;;
3337;SDS011;1682;49.286;10.788;2023-07-20T22:49:53;45.03;;;22.60;;
3337;SDS011;1682;49.286;10.788;2023-07-20T22:56:24;13.17;;;8.93;;
3337;SDS011;1682;49.286;10.788;2023-07-20T22:59:47;5.93;;;5.13;;
3337;SDS011;1682;49.286;10.788;2023-07-20T23:06:14;4.47;;;2.80;;
3337;SDS011;1682;49.286;10.788;2023-07-20T23:09:27;3.27;;;2.97;;
3337;SDS011;1682;49.286;10.788;2023-07-20T23:15:51;7.70;;;5.70;;
3337;SDS011;1682;49.286;10.788;2023-07-20T23:18:41;2.50;;;2.30;;
3337;SDS011;1682;49.286;10.788;2023-07-20T23:25:08;2.60;;;2.20;;
3337;SDS011;1682;49.286;10.788;2023-07-20T23:28:09;2.30;;;2.17;;
3337;SDS011;1682;49.286;10.788;2023-07-20T23:31:34;2.90;;;2.47;;
3337;SDS011;1682;49.286;10.788;2023-07-20T23:40:52;2.83;;;2.60;;
3337;SDS011;1682;49.286;10.788;2023-07-20T23:47:05;3.40;;;2.35;;
3337;SDS011;1682;49.286;10.788;2023-07-20T23:50:15;2.40;;;2.20;;
3337;SDS011;1682;49.286;10.788;2023-07-20T23:53:26;3.07;;;2.77;;
3337;SDS011;1682;49.286;10.788;2023-07-20T23:56:35;3.03;;;2.83;;
3337;SDS011;1682;49.286;10.788;2023-07-20T23:59:29;2.60;;;2.40;;
